createdAt,value
2022-08-22T00:01:54.333Z,1012.64
2022-08-22T00:03:11.474Z,1012.66
2022-08-22T00:16:54.348Z,1012.63
2022-08-22T00:31:54.678Z,1012.63
2022-08-22T00:46:54.496Z,1012.50
2022-08-22T01:01:55.547Z,1012.57
2022-08-22T01:16:54.989Z,1012.59
2022-08-22T01:31:54.692Z,1012.52
2022-08-22T01:46:54.652Z,1012.49
2022-08-22T02:01:54.659Z,1012.59
2022-08-22T02:16:54.897Z,1012.55
2022-08-22T02:31:54.663Z,1012.47
2022-08-22T02:46:54.772Z,1012.45
2022-08-22T03:01:54.777Z,1012.37
2022-08-22T03:16:54.847Z,1012.24
2022-08-22T03:31:54.834Z,1012.14
2022-08-22T03:46:54.862Z,1012.02
2022-08-22T04:01:54.966Z,1011.97
2022-08-22T04:16:54.879Z,1012.01
2022-08-22T04:53:40.320Z,1012.06
2022-08-22T05:08:40.226Z,1012.25
2022-08-22T05:23:40.439Z,1012.28
2022-08-22T05:38:40.322Z,1012.25
2022-08-22T05:53:40.313Z,1012.37
2022-08-22T06:08:40.419Z,1012.39
2022-08-22T06:23:40.473Z,1012.46
2022-08-22T06:38:40.532Z,1012.48
2022-08-22T06:53:47.769Z,1012.44
2022-08-22T07:08:40.494Z,1012.44
2022-08-22T07:23:40.460Z,1012.54
2022-08-22T07:38:40.516Z,1012.49
2022-08-22T07:53:40.519Z,1012.66
2022-08-22T08:08:40.451Z,1012.52
2022-08-22T08:23:40.521Z,1012.32
2022-08-22T08:38:40.596Z,1012.27
2022-08-22T09:08:40.701Z,1011.95
2022-08-22T09:23:40.628Z,1011.78
2022-08-22T09:38:40.537Z,1011.71
2022-08-22T09:53:40.630Z,1011.51
2022-08-22T10:08:40.535Z,1011.45
2022-08-22T10:23:40.682Z,1011.44
2022-08-22T10:38:46.427Z,1011.48
2022-08-22T10:53:40.776Z,1011.30
2022-08-22T11:08:40.682Z,1011.14
2022-08-22T11:23:40.709Z,1011.08
2022-08-22T11:38:40.775Z,1011.01
2022-08-22T11:53:40.822Z,1011.08
2022-08-22T12:08:40.717Z,1010.85
2022-08-22T12:23:48.922Z,1010.79
2022-08-22T12:38:40.828Z,1010.67
2022-08-22T12:53:40.767Z,1010.55
2022-08-22T13:08:40.763Z,1010.50
2022-08-22T13:23:41.970Z,1010.28
2022-08-22T13:38:46.343Z,1010.28
2022-08-22T13:53:44.161Z,1010.17
2022-08-22T14:08:40.849Z,1010.18
2022-08-22T14:23:40.834Z,1010.01
2022-08-22T14:38:46.171Z,1010.01
2022-08-22T14:53:40.843Z,1009.80
2022-08-22T15:08:42.213Z,1009.74
2022-08-22T15:23:45.396Z,1009.59
2022-08-22T15:38:42.034Z,1009.47
2022-08-22T15:53:41.071Z,1009.42
2022-08-22T16:08:40.878Z,1009.47
2022-08-22T16:23:41.068Z,1009.42
2022-08-22T16:38:41.132Z,1009.45
2022-08-22T16:53:45.847Z,1009.47
2022-08-22T17:08:41.277Z,1009.34
2022-08-22T17:23:41.648Z,1009.25
2022-08-22T17:38:41.455Z,1009.21
2022-08-22T17:53:41.311Z,1009.35
2022-08-22T18:23:41.247Z,1009.51
2022-08-22T18:38:41.430Z,1009.66
2022-08-22T18:53:41.506Z,1009.71
2022-08-22T19:08:41.463Z,1009.88
2022-08-22T19:23:41.571Z,1010.08
2022-08-22T19:38:41.653Z,1010.12
2022-08-22T19:53:41.987Z,1010.06
2022-08-22T20:08:42.251Z,1010.15
2022-08-22T20:23:41.687Z,1010.17
2022-08-22T20:38:41.686Z,1010.12
2022-08-22T20:53:41.877Z,1010.12
2022-08-22T21:08:41.794Z,1010.00
2022-08-22T21:23:41.804Z,1010.02
2022-08-22T21:38:41.939Z,1009.95
2022-08-22T21:53:41.992Z,1010.05
2022-08-22T22:08:41.988Z,1010.10
2022-08-22T22:23:42.128Z,1010.12
2022-08-22T22:38:42.089Z,1010.15
2022-08-22T22:53:42.743Z,1010.09
2022-08-22T23:08:42.416Z,1010.05
2022-08-22T23:23:42.327Z,1010.01
2022-08-22T23:38:42.291Z,1010.05
2022-08-22T23:53:42.162Z,1010.10
